Time;durP1;ratioP1;P1;durP2;ratioP2;P2;SDS_P1;SDS_P2;PMS_P1;PMS_P2;Temp;Humidity;BMP_temperature;BMP_pressure;BME280_temperature;BME280_humidity;BME280_pressure;Samples;Min_cycle;Max_cycle;Signal;HPM_P1;HPM_P2
2021/03/15 00:01:56;;;;;;;10.30;4.00;;;7.00;99.90;;;;;;4161440;28;20038;-68
2021/03/15 00:03:56;;;;;;;10.82;3.65;;;7.00;99.90;;;;;;4161349;28;20041;-68
2021/03/15 00:05:58;;;;;;;11.18;4.22;;;7.00;99.90;;;;;;4161106;28;20033;-69
2021/03/15 00:07:59;;;;;;;9.20;2.97;;;7.00;99.90;;;;;;4161179;28;20045;-69
2021/03/15 00:10:04;;;;;;;12.93;3.80;;;7.10;99.90;;;;;;4161492;28;20049;-69
2021/03/15 00:12:05;;;;;;;;;;;7.00;99.90;;;;;;4159405;28;20131;-68
2021/03/15 00:14:05;;;;;;;7.07;3.25;;;7.10;99.90;;;;;;4164161;28;20519;-68
2021/03/15 00:16:06;;;;;;;8.80;3.30;;;7.10;99.90;;;;;;4167307;28;20079;-69
2021/03/15 00:18:07;;;;;;;11.23;3.88;;;7.10;99.90;;;;;;4165990;28;20025;-68
2021/03/15 00:20:10;;;;;;;8.93;3.47;;;7.10;99.90;;;;;;4150995;28;20044;-68
2021/03/15 00:22:11;;;;;;;11.38;3.83;;;7.10;99.90;;;;;;4160713;28;20045;-69
2021/03/15 00:24:12;;;;;;;7.88;3.25;;;7.00;99.90;;;;;;4156325;28;20557;-68
2021/03/15 00:26:13;;;;;;;7.90;3.38;;;7.00;99.90;;;;;;4157580;28;20030;-68
2021/03/15 00:28:13;;;;;;;8.05;3.47;;;7.00;99.90;;;;;;4160942;28;20033;-68
2021/03/15 00:30:17;;;;;;;11.18;3.30;;;7.00;99.90;;;;;;4160747;28;20060;-68
2021/03/15 00:32:19;;;;;;;11.65;3.85;;;7.00;99.90;;;;;;4158792;28;20482;-68
2021/03/15 00:34:19;;;;;;;9.70;3.47;;;7.00;99.90;;;;;;4156453;28;20049;-68
2021/03/15 00:36:20;;;;;;;13.73;3.45;;;7.00;99.90;;;;;;4156702;28;20114;-68
2021/03/15 00:38:21;;;;;;;11.00;3.40;;;6.90;99.90;;;;;;4153270;28;20030;-68
2021/03/15 00:40:23;;;;;;;10.38;3.58;;;6.90;99.90;;;;;;4155507;28;20045;-68
2021/03/15 00:42:24;;;;;;;9.27;3.70;;;6.90;99.90;;;;;;4159154;28;20034;-68
2021/03/15 00:44:25;;;;;;;10.85;4.30;;;6.80;99.90;;;;;;4158264;28;20425;-68
2021/03/15 00:46:26;;;;;;;10.98;4.20;;;6.80;99.90;;;;;;4160924;28;20030;-68
2021/03/15 00:48:26;;;;;;;6.95;3.70;;;6.80;99.90;;;;;;4155929;28;20037;-68
2021/03/15 00:50:34;;;;;;;6.20;3.20;;;6.70;99.90;;;;;;4156330;28;20132;-68
2021/03/15 00:52:37;;;;;;;13.00;4.50;;;6.70;99.90;;;;;;4151381;28;20476;-68
2021/03/15 00:54:38;;;;;;;15.23;4.10;;;6.70;99.90;;;;;;4160365;28;20029;-68
2021/03/15 00:56:38;;;;;;;8.10;3.50;;;6.70;99.90;;;;;;4152608;28;20038;-68
2021/03/15 00:58:39;;;;;;;10.32;4.18;;;6.70;99.90;;;;;;4151172;28;20056;-68
2021/03/15 01:00:40;;;;;;;9.65;3.60;;;6.70;99.90;;;;;;4163344;28;20132;-68
2021/03/15 01:02:41;;;;;;;10.00;4.00;;;6.60;99.90;;;;;;4158362;28;20457;-68
2021/03/15 01:04:41;;;;;;;6.43;3.58;;;6.70;99.90;;;;;;4160515;28;20050;-68
2021/03/15 01:06:43;;;;;;;7.35;3.50;;;6.70;99.90;;;;;;4160491;28;20516;-68
2021/03/15 01:08:44;;;;;;;8.88;3.92;;;6.80;99.90;;;;;;4160343;28;20087;-68
2021/03/15 01:10:47;;;;;;;8.45;3.95;;;6.80;99.90;;;;;;4160617;28;20485;-68
2021/03/15 01:12:47;;;;;;;10.52;3.80;;;6.70;99.90;;;;;;4159517;28;20041;-68
2021/03/15 01:14:48;;;;;;;9.35;3.80;;;6.70;99.90;;;;;;4159992;28;20515;-68
2021/03/15 01:16:48;;;;;;;10.75;4.45;;;6.80;99.90;;;;;;4148962;28;20052;-68
2021/03/15 01:18:50;;;;;;;12.15;4.25;;;6.80;99.90;;;;;;4159625;28;20045;-68
2021/03/15 01:20:50;;;;;;;7.32;3.90;;;6.80;99.90;;;;;;4159076;28;20045;-68
2021/03/15 01:22:52;;;;;;;6.97;3.17;;;6.80;99.90;;;;;;4141922;28;20034;-68
2021/03/15 01:24:52;;;;;;;7.95;3.72;;;6.80;99.90;;;;;;4159940;28;20056;-68
2021/03/15 01:26:53;;;;;;;10.52;4.20;;;6.80;99.90;;;;;;4156572;28;20030;-68
2021/03/15 01:28:53;;;;;;;7.75;3.58;;;6.80;99.90;;;;;;4158143;28;20025;-68
2021/03/15 01:30:54;;;;;;;11.43;3.33;;;6.80;99.90;;;;;;4159242;28;20064;-68
2021/03/15 01:32:55;;;;;;;8.95;4.10;;;6.80;99.90;;;;;;4159452;28;20040;-68
2021/03/15 01:34:56;;;;;;;8.40;3.72;;;6.80;99.90;;;;;;4160056;28;20453;-68
2021/03/15 01:36:56;;;;;;;9.68;4.20;;;6.80;99.90;;;;;;4157602;28;20091;-68
2021/03/15 01:38:57;;;;;;;8.30;4.07;;;6.90;99.90;;;;;;4159364;28;20040;-68
2021/03/15 01:40:58;;;;;;;9.02;3.92;;;6.90;99.90;;;;;;4154991;28;20750;-68
2021/03/15 01:42:58;;;;;;;10.52;4.07;;;6.90;99.90;;;;;;4155999;28;20099;-68
2021/03/15 01:44:59;;;;;;;13.93;4.80;;;6.90;99.90;;;;;;4158775;28;20048;-68
2021/03/15 01:47:01;;;;;;;8.25;3.42;;;6.90;99.90;;;;;;4159821;28;20521;-68
2021/03/15 01:49:02;;;;;;;11.57;3.80;;;6.90;99.90;;;;;;4160145;28;20037;-68
2021/03/15 01:51:02;;;;;;;6.43;3.05;;;6.80;99.90;;;;;;4156720;28;20630;-68
2021/03/15 01:53:03;;;;;;;7.55;3.65;;;6.90;99.90;;;;;;4159721;28;20021;-68
2021/03/15 01:55:06;;;;;;;6.18;3.30;;;6.90;99.90;;;;;;4159521;28;20513;-68
2021/03/15 01:57:06;;;;;;;10.52;3.50;;;6.90;99.90;;;;;;4159916;28;20029;-68
2021/03/15 01:59:07;;;;;;;10.65;4.05;;;6.90;99.90;;;;;;4159596;28;20037;-68
2021/03/15 02:01:08;;;;;;;8.90;3.38;;;7.00;99.90;;;;;;4156622;28;20026;-68
2021/03/15 02:03:09;;;;;;;8.70;4.07;;;6.90;99.90;;;;;;4159743;28;20492;-68
2021/03/15 02:05:11;;;;;;;8.70;4.05;;;6.90;99.90;;;;;;4153891;28;20041;-68
2021/03/15 02:07:13;;;;;;;6.72;3.67;;;7.00;99.90;;;;;;4157889;28;20037;-68
2021/03/15 02:09:13;;;;;;;6.75;3.60;;;6.90;99.90;;;;;;4159528;28;20432;-68
2021/03/15 02:11:25;;;;;;;7.13;3.55;;;6.90;99.90;;;;;;4158088;28;20026;-68
2021/03/15 02:13:48;;;;;;;9.00;4.10;;;6.90;99.90;;;;;;4159580;28;20432;-68
2021/03/15 02:16:07;;;;;;;;;;;6.90;99.90;;;;;;4153084;28;20112;-68
2021/03/15 02:18:40;;;;;;;10.75;3.95;;;6.80;99.90;;;;;;4157349;28;19924;-68
2021/03/15 02:20:56;;;;;;;8.02;3.45;;;6.80;99.90;;;;;;4150732;28;20041;-68
2021/03/15 02:23:04;;;;;;;10.85;4.03;;;6.80;99.90;;;;;;4159436;28;20040;-68
2021/03/15 02:25:38;;;;;;;8.40;3.45;;;6.90;99.90;;;;;;4152722;28;20037;-68
2021/03/15 02:28:04;;;;;;;8.23;3.78;;;6.90;99.90;;;;;;4156618;28;20030;-68
2021/03/15 02:30:33;;;;;;;6.68;3.15;;;6.90;99.90;;;;;;4158602;28;20053;-68
2021/03/15 02:33:04;;;;;;;6.82;3.58;;;7.00;99.90;;;;;;4173519;28;20152;-68
2021/03/15 02:35:17;;;;;;;7.18;3.55;;;6.90;99.90;;;;;;4152166;28;20560;-68
2021/03/15 02:37:25;;;;;;;7.05;3.85;;;6.90;99.90;;;;;;4144705;28;20456;-68
2021/03/15 02:39:33;;;;;;;8.95;4.60;;;6.90;99.90;;;;;;4151568;28;20393;-68
2021/03/15 02:41:36;;;;;;;6.07;3.70;;;7.00;99.90;;;;;;4159054;28;20029;-68
2021/03/15 02:43:50;;;;;;;;;;;6.90;99.90;;;;;;4153668;28;20103;-68
2021/03/15 02:45:55;;;;;;;5.35;3.90;;;7.00;99.90;;;;;;4147777;28;20389;-68
2021/03/15 02:47:58;;;;;;;7.28;4.40;;;7.00;99.90;;;;;;4154730;28;20029;-68
2021/03/15 02:50:05;;;;;;;7.43;3.85;;;7.00;99.90;;;;;;4162183;28;20075;-68
2021/03/15 02:52:07;;;;;;;8.98;4.03;;;7.00;99.90;;;;;;4156662;28;20022;-68
2021/03/15 02:54:12;;;;;;;5.85;4.10;;;7.00;99.90;;;;;;4155300;28;20044;-68
2021/03/15 02:56:18;;;;;;;8.30;4.00;;;7.00;99.90;;;;;;4156051;28;20413;-68
2021/03/15 02:58:20;;;;;;;5.78;3.33;;;7.00;99.90;;;;;;4156926;28;20080;-68
2021/03/15 03:00:23;;;;;;;5.88;3.92;;;7.00;99.90;;;;;;4154652;28;20088;-68
2021/03/15 03:02:26;;;;;;;6.80;4.22;;;7.00;99.90;;;;;;4154529;28;20139;-68
2021/03/15 03:04:27;;;;;;;6.70;3.65;;;6.90;99.90;;;;;;4155937;28;20046;-68
2021/03/15 03:06:31;;;;;;;8.65;4.75;;;7.00;99.90;;;;;;4157725;28;20508;-68
2021/03/15 03:08:34;;;;;;;8.45;4.45;;;6.90;99.90;;;;;;4158891;28;20042;-68
2021/03/15 03:10:36;;;;;;;7.38;4.20;;;7.00;99.90;;;;;;4154571;28;20092;-68
2021/03/15 03:12:39;;;;;;;8.15;4.40;;;6.90;99.90;;;;;;4156774;28;20038;-68
2021/03/15 03:14:40;;;;;;;;;;;6.90;99.90;;;;;;4141432;28;21172;-68
2021/03/15 03:16:42;;;;;;;8.07;4.03;;;6.90;99.90;;;;;;4157010;28;19935;-68
2021/03/15 03:18:44;;;;;;;6.78;4.53;;;6.90;99.90;;;;;;4159476;28;20040;-68
2021/03/15 03:20:49;;;;;;;6.47;4.50;;;6.90;99.90;;;;;;4156505;28;20065;-68
2021/03/15 03:22:52;;;;;;;5.70;4.53;;;6.90;99.90;;;;;;4158528;28;20091;-68
2021/03/15 03:24:55;;;;;;;9.05;4.80;;;6.90;99.90;;;;;;4135924;28;20129;-68
2021/03/15 03:26:56;;;;;;;8.77;5.03;;;6.90;99.90;;;;;;4145257;28;20038;-69
2021/03/15 03:28:58;;;;;;;9.63;4.88;;;6.90;99.90;;;;;;4150093;28;20525;-68
2021/03/15 03:31:02;;;;;;;8.50;5.17;;;6.90;99.90;;;;;;4159918;28;20096;-68
2021/03/15 03:33:07;;;;;;;8.75;4.65;;;6.90;99.90;;;;;;4160989;28;20033;-68
2021/03/15 03:35:09;;;;;;;7.13;5.00;;;6.90;99.90;;;;;;4162172;28;20533;-69
2021/03/15 03:37:10;;;;;;;6.22;4.50;;;6.90;99.90;;;;;;4158281;28;20049;-68
2021/03/15 03:39:11;;;;;;;8.13;4.70;;;6.90;99.90;;;;;;4152340;28;20033;-68
2021/03/15 03:41:12;;;;;;;5.67;4.53;;;6.90;99.90;;;;;;4155550;28;20486;-68
2021/03/15 03:43:13;;;;;;;5.97;4.50;;;6.90;99.90;;;;;;4158219;28;20022;-68
2021/03/15 03:45:14;;;;;;;6.78;5.10;;;6.90;99.90;;;;;;4153408;28;20075;-69
2021/03/15 03:47:16;;;;;;;5.80;4.97;;;6.90;99.90;;;;;;4157741;28;20022;-69
2021/03/15 03:49:17;;;;;;;10.65;4.90;;;6.90;99.90;;;;;;4157396;28;20516;-68
2021/03/15 03:51:20;;;;;;;6.47;5.05;;;6.90;99.90;;;;;;4159947;28;20121;-69
2021/03/15 03:53:27;;;;;;;6.07;4.43;;;6.90;99.90;;;;;;4154914;28;20045;-68
2021/03/15 03:56:03;;;;;;;7.72;4.88;;;6.90;99.90;;;;;;4161574;28;20032;-68
2021/03/15 03:58:07;;;;;;;7.63;4.38;;;6.80;99.90;;;;;;4152438;28;20037;-68
2021/03/15 04:00:14;;;;;;;6.43;4.70;;;6.80;99.90;;;;;;4158952;28;20041;-68
2021/03/15 04:02:16;;;;;;;7.53;5.55;;;6.80;99.90;;;;;;4157575;28;20038;-69
2021/03/15 04:04:21;;;;;;;8.52;5.28;;;6.80;99.90;;;;;;4161367;28;20037;-68
2021/03/15 04:06:28;;;;;;;6.60;4.88;;;6.80;99.90;;;;;;4161179;28;20120;-68
2021/03/15 04:08:40;;;;;;;7.38;5.00;;;6.70;99.90;;;;;;4155097;28;20397;-68
2021/03/15 04:10:42;;;;;;;9.27;5.97;;;6.70;99.90;;;;;;4159198;28;20042;-68
2021/03/15 04:12:52;;;;;;;8.85;5.30;;;6.70;99.90;;;;;;4161420;28;20470;-68
2021/03/15 04:14:55;;;;;;;8.57;5.32;;;6.70;99.90;;;;;;4161064;28;20442;-68
2021/03/15 04:16:59;;;;;;;10.15;5.78;;;6.60;99.90;;;;;;4152793;28;20038;-69
2021/03/15 04:19:04;;;;;;;10.75;5.88;;;6.60;99.90;;;;;;4159776;28;20033;-69
2021/03/15 04:21:07;;;;;;;9.10;5.72;;;6.60;99.90;;;;;;4157111;28;20378;-69
2021/03/15 04:23:13;;;;;;;8.48;5.72;;;6.60;99.90;;;;;;4161254;28;20052;-69
2021/03/15 04:25:14;;;;;;;9.98;6.10;;;6.60;99.90;;;;;;4159709;28;20033;-69
2021/03/15 04:27:16;;;;;;;8.82;6.32;;;6.60;99.90;;;;;;4161146;28;20036;-69
2021/03/15 04:29:18;;;;;;;7.43;5.45;;;6.60;99.90;;;;;;4160919;28;20034;-69
2021/03/15 04:31:20;;;;;;;9.70;6.50;;;6.60;99.90;;;;;;4160388;28;20120;-69
2021/03/15 04:33:24;;;;;;;8.93;6.50;;;6.60;99.90;;;;;;4161334;28;20037;-69
2021/03/15 04:35:28;;;;;;;13.10;6.70;;;6.60;99.90;;;;;;4159426;28;20033;-69
2021/03/15 04:37:29;;;;;;;9.10;6.57;;;6.50;99.90;;;;;;4160907;28;20034;-69
2021/03/15 04:39:33;;;;;;;9.40;6.28;;;6.50;99.90;;;;;;4160889;28;20038;-69
2021/03/15 04:41:34;;;;;;;8.20;6.00;;;6.50;99.90;;;;;;4159378;28;20053;-69
2021/03/15 04:43:38;;;;;;;11.48;7.22;;;6.50;99.90;;;;;;4159532;28;20038;-69
2021/03/15 04:45:45;;;;;;;10.43;6.57;;;6.50;99.90;;;;;;4159488;28;20042;-69
2021/03/15 04:47:46;;;;;;;6.95;4.72;;;6.50;99.90;;;;;;4155185;28;20421;-69
2021/03/15 04:49:48;;;;;;;7.78;5.03;;;6.50;99.90;;;;;;4158778;28;20037;-69
2021/03/15 04:51:49;;;;;;;7.13;4.93;;;6.50;99.90;;;;;;4160498;28;20052;-69
2021/03/15 04:53:54;;;;;;;7.63;4.82;;;6.50;99.90;;;;;;4155690;28;20661;-69
2021/03/15 04:55:59;;;;;;;7.28;5.07;;;6.50;99.90;;;;;;4160129;28;20112;-69
2021/03/15 04:58:05;;;;;;;8.27;5.80;;;6.50;99.90;;;;;;4154904;28;20038;-69
2021/03/15 05:00:13;;;;;;;8.18;5.72;;;6.50;99.90;;;;;;4151671;28;20033;-69
2021/03/15 05:02:19;;;;;;;8.75;6.05;;;6.50;99.90;;;;;;4154673;28;20136;-68
2021/03/15 05:04:22;;;;;;;8.50;5.68;;;6.50;99.90;;;;;;4145530;28;20033;-69
2021/03/15 05:06:24;;;;;;;6.68;5.38;;;6.50;99.90;;;;;;4154887;28;20049;-69
2021/03/15 05:08:27;;;;;;;;;;;6.50;99.90;;;;;;4151359;28;20440;-69
2021/03/15 05:10:29;;;;;;;7.35;5.28;;;6.50;99.90;;;;;;4141694;28;19917;-69
2021/03/15 05:12:31;;;;;;;9.05;5.55;;;6.50;99.90;;;;;;4160015;28;20029;-69
2021/03/15 05:14:32;;;;;;;8.02;4.72;;;6.50;99.90;;;;;;4160289;28;20044;-69
2021/03/15 05:16:38;;;;;;;6.80;4.38;;;6.50;99.90;;;;;;4159669;28;20045;-69
2021/03/15 05:18:40;;;;;;;6.15;4.65;;;6.50;99.90;;;;;;4156483;28;20037;-69
2021/03/15 05:20:46;;;;;;;6.13;4.05;;;6.50;99.90;;;;;;4148295;28;20044;-69
2021/03/15 05:22:47;;;;;;;5.30;3.92;;;6.50;99.90;;;;;;4152250;28;20067;-69
2021/03/15 05:24:48;;;;;;;4.80;3.65;;;6.50;99.90;;;;;;4158620;28;20520;-69
2021/03/15 05:26:49;;;;;;;4.30;3.35;;;6.40;99.90;;;;;;4158497;28;20057;-69
2021/03/15 05:28:52;;;;;;;4.82;3.30;;;6.50;99.90;;;;;;4159989;28;20029;-69
2021/03/15 05:30:58;;;;;;;5.18;3.38;;;6.40;99.90;;;;;;4154205;28;20118;-69
2021/03/15 05:33:00;;;;;;;5.00;3.30;;;6.50;99.90;;;;;;4152134;28;20046;-69
2021/03/15 05:35:03;;;;;;;4.03;3.20;;;6.40;99.90;;;;;;4159689;28;20516;-69
2021/03/15 05:37:04;;;;;;;4.05;3.30;;;6.40;99.90;;;;;;4159743;28;20112;-69
2021/03/15 05:39:06;;;;;;;5.00;3.40;;;6.40;99.90;;;;;;4149481;28;20045;-69
2021/03/15 05:41:12;;;;;;;4.20;2.95;;;6.40;99.90;;;;;;4158967;28;20435;-69
2021/03/15 05:43:19;;;;;;;5.20;3.25;;;6.40;99.90;;;;;;4159855;28;20044;-69
2021/03/15 05:45:26;;;;;;;6.72;3.53;;;6.40;99.90;;;;;;4159835;28;20037;-69
2021/03/15 05:47:57;;;;;;;3.95;3.00;;;6.40;99.90;;;;;;4158240;28;20042;-69
2021/03/15 05:50:04;;;;;;;4.28;3.65;;;6.40;99.90;;;;;;4151700;28;20052;-69
2021/03/15 05:52:12;;;;;;;4.57;3.72;;;6.40;99.90;;;;;;4157488;28;20037;-69
2021/03/15 05:54:27;;;;;;;4.85;3.50;;;6.40;99.90;;;;;;4152417;28;20048;-69
2021/03/15 05:56:48;;;;;;;3.90;3.45;;;6.40;99.90;;;;;;4153684;28;20061;-69
2021/03/15 05:59:04;;;;;;;5.43;3.72;;;6.50;99.90;;;;;;4155655;28;20051;-69
2021/03/15 06:01:21;;;;;;;9.88;5.20;;;6.50;99.90;;;;;;4154401;28;20099;-69
2021/03/15 06:03:45;;;;;;;8.15;5.03;;;6.50;99.90;;;;;;4153069;28;20113;-69
2021/03/15 06:05:48;;;;;;;6.95;5.35;;;6.50;99.90;;;;;;4152135;28;20514;-69
2021/03/15 06:07:56;;;;;;;7.68;5.63;;;6.50;99.90;;;;;;4158681;28;20083;-69
2021/03/15 06:10:08;;;;;;;8.82;5.60;;;6.50;99.90;;;;;;4151375;28;20034;-69
2021/03/15 06:12:37;;;;;;;8.20;5.43;;;6.50;99.90;;;;;;4156476;28;20056;-69
2021/03/15 06:14:39;;;;;;;9.27;5.30;;;6.50;99.90;;;;;;4154008;28;20490;-69
2021/03/15 06:16:43;;;;;;;9.35;5.35;;;6.60;99.90;;;;;;4154403;28;20037;-70
2021/03/15 06:18:44;;;;;;;7.78;4.97;;;6.60;99.90;;;;;;4154229;28;20030;-69
2021/03/15 06:20:48;;;;;;;11.65;6.00;;;6.60;99.90;;;;;;4163112;28;20057;-69
2021/03/15 06:22:50;;;;;;;7.55;5.22;;;6.60;99.90;;;;;;4144399;28;20049;-69
2021/03/15 06:24:51;;;;;;;9.00;5.78;;;6.60;99.90;;;;;;4158421;28;20060;-69
2021/03/15 06:26:53;;;;;;;9.95;5.78;;;6.60;99.90;;;;;;4159121;28;20417;-69
2021/03/15 06:28:55;;;;;;;9.88;5.72;;;6.60;99.90;;;;;;4152524;28;20049;-69
2021/03/15 06:30:57;;;;;;;8.05;5.60;;;6.60;99.90;;;;;;4148488;28;20033;-69
2021/03/15 06:33:00;;;;;;;11.00;6.05;;;6.60;99.90;;;;;;4132000;28;20216;-69
2021/03/15 06:35:02;;;;;;;9.88;6.40;;;6.60;99.90;;;;;;4146117;28;20034;-69
2021/03/15 06:37:04;;;;;;;9.85;5.95;;;6.70;99.90;;;;;;4153802;28;20113;-70
2021/03/15 06:39:26;;;;;;;9.13;5.03;;;6.70;99.90;;;;;;4152182;28;20099;-69
2021/03/15 06:41:28;;;;;;;9.23;5.32;;;6.70;99.90;;;;;;4152360;28;20037;-69
2021/03/15 06:43:30;;;;;;;8.27;5.80;;;6.70;99.90;;;;;;4155891;28;20120;-69
2021/03/15 06:45:31;;;;;;;7.88;5.45;;;6.70;99.90;;;;;;4148602;28;20041;-69
2021/03/15 06:47:32;;;;;;;8.18;5.35;;;6.70;99.90;;;;;;4149168;28;20125;-69
2021/03/15 06:49:33;;;;;;;13.60;6.15;;;6.70;99.90;;;;;;4157180;28;20041;-69
2021/03/15 06:51:35;;;;;;;10.93;5.97;;;6.70;99.90;;;;;;4148855;28;20084;-69
2021/03/15 06:53:43;;;;;;;9.20;5.45;;;6.80;99.90;;;;;;4156214;28;20065;-69
2021/03/15 06:55:46;;;;;;;9.70;5.50;;;6.80;99.90;;;;;;4136308;28;20037;-69
2021/03/15 06:57:47;;;;;;;10.02;5.63;;;6.80;99.90;;;;;;4153478;28;20040;-69
2021/03/15 06:59:49;;;;;;;8.88;5.68;;;6.80;99.90;;;;;;4149245;28;20033;-69
2021/03/15 07:01:50;;;;;;;10.05;6.13;;;6.90;99.90;;;;;;4152812;28;20040;-69
2021/03/15 07:04:11;;;;;;;11.02;6.00;;;6.90;99.90;;;;;;4156708;28;20084;-69
2021/03/15 07:06:13;;;;;;;10.60;5.88;;;6.90;99.90;;;;;;4156304;28;20092;-69
2021/03/15 07:08:18;;;;;;;10.32;6.57;;;6.90;99.90;;;;;;4158995;28;20112;-69
2021/03/15 07:10:25;;;;;;;12.07;6.15;;;6.90;99.90;;;;;;4157372;28;20041;-69
2021/03/15 07:12:26;;;;;;;12.43;6.10;;;6.90;99.90;;;;;;4159389;28;20111;-69
2021/03/15 07:14:27;;;;;;;12.90;6.10;;;6.90;99.90;;;;;;4140165;28;20474;-69
2021/03/15 07:16:30;;;;;;;13.20;5.97;;;6.90;99.90;;;;;;4158194;28;20030;-69
2021/03/15 07:18:34;;;;;;;8.60;4.78;;;7.00;99.90;;;;;;4155823;28;20403;-70
2021/03/15 07:20:47;;;;;;;12.80;6.22;;;7.10;99.90;;;;;;4155655;28;20041;-69
2021/03/15 07:22:47;;;;;;;9.85;5.40;;;7.10;99.90;;;;;;4151605;28;20042;-69
2021/03/15 07:25:19;;;;;;;10.07;5.50;;;7.10;99.90;;;;;;4151498;28;20049;-69
2021/03/15 07:27:33;;;;;;;9.13;5.28;;;7.10;99.90;;;;;;4139364;28;20034;-69
2021/03/15 07:29:34;;;;;;;13.07;6.00;;;7.10;99.90;;;;;;4154783;28;20037;-70
2021/03/15 07:31:34;;;;;;;13.48;6.28;;;7.20;99.90;;;;;;4150907;28;20049;-69
2021/03/15 07:33:35;;;;;;;10.13;5.57;;;7.10;99.90;;;;;;4155456;28;20748;-69
2021/03/15 07:35:38;;;;;;;13.20;6.25;;;7.20;99.90;;;;;;4154807;28;20494;-70
2021/03/15 07:37:41;;;;;;;;;;;7.20;99.90;;;;;;4152823;28;20034;-70
2021/03/15 07:39:50;;;;;;;;;;;7.20;99.90;;;;;;4158064;28;19976;-69
2021/03/15 07:41:53;;;;;;;12.23;6.95;;;7.30;99.90;;;;;;4156864;28;20285;-69
2021/03/15 07:43:53;;;;;;;11.10;7.47;;;7.30;99.90;;;;;;4141829;28;20117;-69
2021/03/15 07:45:54;;;;;;;10.82;7.10;;;7.30;99.90;;;;;;4154392;28;22344;-70
2021/03/15 07:48:03;;;;;;;12.65;7.00;;;7.30;99.90;;;;;;4157945;28;20044;-70
2021/03/15 07:50:06;;;;;;;13.45;7.60;;;7.30;99.90;;;;;;4158696;28;20064;-70
2021/03/15 07:52:11;;;;;;;17.67;8.60;;;7.40;99.90;;;;;;4158179;28;20103;-69
2021/03/15 07:54:12;;;;;;;16.20;8.68;;;7.30;99.90;;;;;;4155431;28;20048;-69
2021/03/15 07:56:22;;;;;;;13.52;7.97;;;7.40;99.90;;;;;;4154653;28;20537;-69
2021/03/15 07:58:40;;;;;;;17.27;7.80;;;7.40;99.90;;;;;;4158234;28;20551;-69
2021/03/15 08:00:41;;;;;;;15.50;7.80;;;7.40;99.90;;;;;;4155211;28;20060;-69
2021/03/15 08:02:42;;;;;;;14.13;8.10;;;7.50;99.90;;;;;;4157600;28;20059;-69
2021/03/15 08:04:43;;;;;;;14.00;7.50;;;7.50;99.90;;;;;;4155148;28;20068;-69
2021/03/15 08:06:44;;;;;;;12.45;7.45;;;7.50;99.90;;;;;;4158321;28;20617;-69
2021/03/15 08:08:45;;;;;;;16.67;7.75;;;7.60;99.90;;;;;;4159662;28;20046;-69
2021/03/15 08:10:46;;;;;;;17.35;7.57;;;7.60;99.90;;;;;;4141555;28;20030;-69
2021/03/15 08:12:47;;;;;;;14.52;7.57;;;7.50;99.90;;;;;;4159779;28;20033;-69
2021/03/15 08:14:54;;;;;;;18.45;8.68;;;7.60;99.90;;;;;;4159202;28;20171;-72
2021/03/15 08:16:58;;;;;;;18.02;8.73;;;7.50;99.90;;;;;;4159289;28;20243;-67
2021/03/15 08:18:59;;;;;;;15.88;8.18;;;7.60;99.90;;;;;;4158599;28;20038;-67
2021/03/15 08:21:05;;;;;;;11.18;6.50;;;7.60;99.90;;;;;;4160323;28;20040;-68
2021/03/15 08:23:07;;;;;;;15.43;7.75;;;7.60;99.90;;;;;;4157453;28;20029;-67
2021/03/15 08:25:09;;;;;;;19.00;8.25;;;7.60;99.90;;;;;;4141743;28;20520;-67
2021/03/15 08:27:10;;;;;;;16.58;7.93;;;7.70;99.90;;;;;;4158197;28;20484;-67
2021/03/15 08:29:13;;;;;;;15.20;7.70;;;7.80;99.90;;;;;;4155922;28;20042;-67
2021/03/15 08:31:22;;;;;;;14.38;7.68;;;7.90;99.90;;;;;;4158950;28;20041;-67
2021/03/15 08:33:23;;;;;;;17.70;6.75;;;7.90;99.90;;;;;;4153894;28;20049;-67
2021/03/15 08:35:25;;;;;;;15.68;6.90;;;7.90;99.90;;;;;;4156625;28;20033;-67
2021/03/15 08:37:53;;;;;;;18.63;6.65;;;7.90;99.90;;;;;;4159609;28;20041;-67
2021/03/15 08:39:53;;;;;;;20.50;6.80;;;7.90;99.90;;;;;;4137785;28;20541;-67
2021/03/15 08:42:06;;;;;;;19.77;7.60;;;7.90;99.90;;;;;;4149604;28;20033;-67
2021/03/15 08:44:39;;;;;;;14.68;6.88;;;7.80;99.90;;;;;;4148138;28;20132;-68
2021/03/15 08:46:43;;;;;;;15.07;6.85;;;7.80;99.90;;;;;;4154504;28;20417;-67
2021/03/15 08:48:49;;;;;;;17.08;6.82;;;7.70;99.90;;;;;;4151276;28;20060;-68
2021/03/15 08:50:54;;;;;;;23.80;9.25;;;7.70;99.90;;;;;;4150565;28;20046;-67
2021/03/15 08:52:54;;;;;;;18.25;7.32;;;7.70;99.90;;;;;;4140999;28;20370;-68
2021/03/15 08:54:55;;;;;;;16.75;7.13;;;7.70;99.90;;;;;;4153666;28;20041;-67
2021/03/15 08:56:55;;;;;;;19.70;7.47;;;7.70;99.90;;;;;;4156554;28;20052;-67
2021/03/15 08:58:57;;;;;;;17.05;7.53;;;7.60;99.90;;;;;;4149061;28;20225;-67
2021/03/15 09:00:58;;;;;;;14.48;6.68;;;7.60;99.90;;;;;;4155677;28;20497;-67
2021/03/15 09:02:59;;;;;;;16.65;6.22;;;7.70;99.90;;;;;;4159123;28;20037;-67
2021/03/15 09:05:22;;;;;;;16.17;6.50;;;7.60;99.90;;;;;;4158251;28;20046;-68
2021/03/15 09:07:33;;;;;;;25.45;7.38;;;7.70;99.90;;;;;;4157265;28;20548;-68
2021/03/15 09:09:34;;;;;;;13.18;5.95;;;7.70;99.90;;;;;;4156773;28;20091;-68
2021/03/15 09:11:37;;;;;;;16.42;6.78;;;7.80;99.90;;;;;;4155470;28;20443;-68
2021/03/15 09:13:38;;;;;;;13.75;6.45;;;7.80;99.90;;;;;;4156865;28;23905;-68
2021/03/15 09:15:40;;;;;;;19.55;7.10;;;7.90;99.90;;;;;;4158128;28;20041;-68
2021/03/15 09:17:41;;;;;;;21.08;8.07;;;8.00;99.90;;;;;;4157234;28;20029;-68
2021/03/15 09:19:49;;;;;;;21.48;6.32;;;8.10;99.90;;;;;;4156739;28;20053;-68
2021/03/15 09:21:58;;;;;;;20.93;6.03;;;8.30;99.90;;;;;;4173174;28;20219;-68
2021/03/15 09:24:00;;;;;;;15.20;5.72;;;8.40;99.90;;;;;;4156966;28;20628;-68
2021/03/15 09:26:25;;;;;;;12.23;4.75;;;8.50;99.90;;;;;;4155269;28;20034;-68
2021/03/15 09:28:26;;;;;;;17.50;5.32;;;8.70;99.90;;;;;;4156073;28;20030;-67
2021/03/15 09:30:35;;;;;;;11.48;4.65;;;8.80;99.90;;;;;;4156996;28;20040;-67
2021/03/15 09:32:36;;;;;;;14.52;4.90;;;8.70;99.90;;;;;;4157180;28;20197;-67
2021/03/15 09:34:37;;;;;;;15.35;4.30;;;8.60;99.90;;;;;;4158156;28;20124;-68
2021/03/15 09:36:38;;;;;;;15.05;4.60;;;8.70;99.90;;;;;;4155854;28;20482;-68
2021/03/15 09:38:39;;;;;;;21.58;4.90;;;8.70;99.90;;;;;;4153164;28;20064;-68
2021/03/15 09:40:43;;;;;;;15.43;5.05;;;8.60;99.90;;;;;;4156639;28;20052;-68
2021/03/15 09:42:44;;;;;;;19.50;3.83;;;8.70;99.90;;;;;;4154450;28;20049;-67
2021/03/15 09:44:45;;;;;;;16.48;4.07;;;8.60;99.90;;;;;;4148382;28;20481;-67
2021/03/15 09:46:49;;;;;;;13.32;4.25;;;8.50;99.90;;;;;;4151196;28;20030;-67
2021/03/15 09:48:50;;;;;;;20.27;3.75;;;8.50;99.90;;;;;;4141794;28;20113;-68
2021/03/15 09:50:58;;;;;;;14.43;3.72;;;8.50;99.90;;;;;;4157893;28;20033;-67
2021/03/15 09:53:13;;;;;;;10.02;3.80;;;8.50;99.90;;;;;;4156718;28;20489;-68
2021/03/15 09:55:14;;;;;;;16.73;3.90;;;8.50;99.90;;;;;;4157253;28;20079;-67
2021/03/15 09:57:17;;;;;;;13.85;3.67;;;8.40;99.90;;;;;;4157836;28;20066;-68
2021/03/15 09:59:17;;;;;;;14.80;3.55;;;8.40;99.90;;;;;;4157218;28;20045;-68
2021/03/15 10:01:20;;;;;;;13.10;2.92;;;8.40;99.90;;;;;;4157175;28;20030;-68
2021/03/15 10:03:26;;;;;;;16.05;3.05;;;8.40;99.90;;;;;;4156321;28;20044;-68
2021/03/15 10:05:26;;;;;;;12.68;3.15;;;8.50;99.90;;;;;;4152308;28;20099;-68
2021/03/15 10:07:27;;;;;;;12.55;3.20;;;8.40;99.90;;;;;;4157365;28;20072;-68
2021/03/15 10:09:32;;;;;;;15.15;3.00;;;8.50;99.90;;;;;;4153287;28;20081;-68
2021/03/15 10:11:42;;;;;;;8.48;2.63;;;8.50;99.90;;;;;;4154231;28;20521;-68
2021/03/15 10:13:42;;;;;;;12.43;2.53;;;8.40;99.90;;;;;;4157792;28;20119;-68
2021/03/15 10:15:46;;;;;;;14.82;3.00;;;8.40;99.90;;;;;;4150886;28;20482;-67
2021/03/15 10:17:47;;;;;;;9.52;2.05;;;8.40;99.90;;;;;;4151304;28;20033;-68
2021/03/15 10:19:48;;;;;;;16.00;2.58;;;8.40;99.90;;;;;;4152677;28;20037;-68
2021/03/15 10:21:49;;;;;;;11.75;2.25;;;8.40;99.90;;;;;;4137676;28;20045;-68
2021/03/15 10:23:50;;;;;;;12.13;2.35;;;8.50;99.90;;;;;;4148836;28;20064;-67
2021/03/15 10:25:56;;;;;;;9.85;2.83;;;8.50;99.90;;;;;;4153383;28;20087;-68
2021/03/15 10:27:58;;;;;;;10.07;2.40;;;8.50;99.90;;;;;;4155557;28;20090;-68
2021/03/15 10:30:07;;;;;;;10.02;2.20;;;8.50;99.90;;;;;;4137615;28;20045;-68
2021/03/15 10:32:09;;;;;;;13.85;3.40;;;8.60;99.90;;;;;;4149228;28;20535;-68
2021/03/15 10:34:09;;;;;;;14.15;2.58;;;8.70;99.90;;;;;;4145363;28;20109;-68
2021/03/15 10:36:11;;;;;;;11.73;2.25;;;8.80;99.90;;;;;;4143495;28;20033;-68
2021/03/15 10:38:13;;;;;;;9.52;2.25;;;8.80;99.90;;;;;;4155924;28;20458;-68
2021/03/15 10:40:19;;;;;;;11.93;2.57;;;8.80;99.90;;;;;;4156689;28;20037;-68
2021/03/15 10:42:21;;;;;;;7.82;2.03;;;8.90;99.90;;;;;;4159874;28;20300;-68
2021/03/15 10:44:23;;;;;;;18.07;2.90;;;8.90;99.90;;;;;;4160326;28;20037;-68
2021/03/15 10:46:26;;;;;;;18.92;2.38;;;9.00;99.90;;;;;;4158552;28;20276;-68
2021/03/15 10:48:27;;;;;;;11.98;2.28;;;9.10;99.90;;;;;;4158384;28;20101;-67
2021/03/15 10:50:33;;;;;;;14.18;2.65;;;9.10;99.90;;;;;;4160657;28;20220;-67
2021/03/15 10:52:35;;;;;;;18.33;2.70;;;9.10;99.90;;;;;;4158222;28;20034;-67
2021/03/15 10:54:37;;;;;;;11.07;2.33;;;9.00;99.90;;;;;;4161008;28;20033;-68
2021/03/15 10:56:38;;;;;;;10.57;2.03;;;8.90;99.90;;;;;;4153698;28;20092;-67